sensor_id;sensor_type;location;lat;lon;timestamp;pressure;altitude;pressure_sealevel;temperature;humidity
21826;BME280;11075;47.944;11.776;2024-03-22T00:02:02;95548.91;;;2.26;68.64
21826;BME280;11075;47.944;11.776;2024-03-22T00:04:28;95536.38;;;2.87;63.39
21826;BME280;11075;47.944;11.776;2024-03-22T00:06:54;95527.75;;;3.15;63.52
21826;BME280;11075;47.944;11.776;2024-03-22T00:09:20;95528.22;;;2.65;63.91
21826;BME280;11075;47.944;11.776;2024-03-22T00:11:45;95516.53;;;2.38;66.05
21826;BME280;11075;47.944;11.776;2024-03-22T00:14:11;95511.84;;;2.10;69.16
21826;BME280;11075;47.944;11.776;2024-03-22T00:16:37;95515.16;;;2.70;63.24
21826;BME280;11075;47.944;11.776;2024-03-22T00:19:03;95515.38;;;2.33;66.44
21826;BME280;11075;47.944;11.776;2024-03-22T00:21:29;95518.44;;;1.89;68.75
21826;BME280;11075;47.944;11.776;2024-03-22T00:23:55;95519.16;;;1.18;70.94
21826;BME280;11075;47.944;11.776;2024-03-22T00:26:21;95510.28;;;1.79;67.46
21826;BME280;11075;47.944;11.776;2024-03-22T00:28:47;95506.72;;;1.73;70.51
21826;BME280;11075;47.944;11.776;2024-03-22T00:31:13;95509.78;;;1.70;72.94
21826;BME280;11075;47.944;11.776;2024-03-22T00:33:39;95502.94;;;2.11;68.42
21826;BME280;11075;47.944;11.776;2024-03-22T00:36:05;95515.56;;;2.20;66.52
21826;BME280;11075;47.944;11.776;2024-03-22T00:38:31;95512.38;;;1.88;67.92
21826;BME280;11075;47.944;11.776;2024-03-22T00:40:56;95512.28;;;1.17;74.41
21826;BME280;11075;47.944;11.776;2024-03-22T00:43:22;95504.34;;;1.83;71.21
21826;BME280;11075;47.944;11.776;2024-03-22T00:45:48;95500.81;;;1.89;69.20
21826;BME280;11075;47.944;11.776;2024-03-22T00:48:13;95506.13;;;2.66;63.50
21826;BME280;11075;47.944;11.776;2024-03-22T00:50:39;95507.16;;;1.03;72.43
21826;BME280;11075;47.944;11.776;2024-03-22T00:53:05;95497.72;;;0.78;72.95
21826;BME280;11075;47.944;11.776;2024-03-22T00:55:31;95498.59;;;1.75;66.39
21826;BME280;11075;47.944;11.776;2024-03-22T00:57:57;95490.47;;;1.76;67.43
21826;BME280;11075;47.944;11.776;2024-03-22T01:00:23;95494.97;;;1.27;69.44
21826;BME280;11075;47.944;11.776;2024-03-22T01:02:49;95487.53;;;2.38;63.92
21826;BME280;11075;47.944;11.776;2024-03-22T01:05:15;95480.09;;;2.34;62.53
21826;BME280;11075;47.944;11.776;2024-03-22T01:07:41;95493.03;;;1.94;64.59
21826;BME280;11075;47.944;11.776;2024-03-22T01:10:07;95485.34;;;1.81;64.06
21826;BME280;11075;47.944;11.776;2024-03-22T01:12:33;95477.16;;;2.01;64.84
21826;BME280;11075;47.944;11.776;2024-03-22T01:14:58;95479.25;;;1.69;64.85
21826;BME280;11075;47.944;11.776;2024-03-22T01:17:24;95472.22;;;2.04;63.90
21826;BME280;11075;47.944;11.776;2024-03-22T01:19:50;95465.63;;;1.72;67.12
21826;BME280;11075;47.944;11.776;2024-03-22T01:22:16;95468.41;;;0.81;71.17
21826;BME280;11075;47.944;11.776;2024-03-22T01:24:43;95470.94;;;1.05;68.49
21826;BME280;11075;47.944;11.776;2024-03-22T01:27:09;95459.47;;;1.18;68.52
21826;BME280;11075;47.944;11.776;2024-03-22T01:29:34;95460.53;;;0.13;72.82
21826;BME280;11075;47.944;11.776;2024-03-22T01:32:01;95456.84;;;0.82;71.23
21826;BME280;11075;47.944;11.776;2024-03-22T01:34:26;95450.25;;;1.57;65.33
21826;BME280;11075;47.944;11.776;2024-03-22T01:36:52;95453.06;;;1.44;68.08
21826;BME280;11075;47.944;11.776;2024-03-22T01:39:21;95453.09;;;1.56;66.45
21826;BME280;11075;47.944;11.776;2024-03-22T01:41:47;95450.06;;;1.70;66.91
21826;BME280;11075;47.944;11.776;2024-03-22T01:44:13;95443.69;;;1.90;66.69
21826;BME280;11075;47.944;11.776;2024-03-22T01:46:39;95446.06;;;1.38;69.53
21826;BME280;11075;47.944;11.776;2024-03-22T01:49:05;95443.19;;;1.69;67.62
21826;BME280;11075;47.944;11.776;2024-03-22T01:51:31;95433.59;;;1.75;66.77
21826;BME280;11075;47.944;11.776;2024-03-22T01:53:57;95430.34;;;2.03;64.54
21826;BME280;11075;47.944;11.776;2024-03-22T01:56:24;95431.91;;;1.81;65.43
21826;BME280;11075;47.944;11.776;2024-03-22T01:58:50;95427.47;;;2.16;62.81
21826;BME280;11075;47.944;11.776;2024-03-22T02:01:16;95433.44;;;1.58;64.38
21826;BME280;11075;47.944;11.776;2024-03-22T02:03:42;95430.66;;;1.83;63.82
21826;BME280;11075;47.944;11.776;2024-03-22T02:06:08;95427.25;;;2.06;61.74
21826;BME280;11075;47.944;11.776;2024-03-22T02:08:35;95422.72;;;2.37;60.21
21826;BME280;11075;47.944;11.776;2024-03-22T02:11:01;95420.97;;;2.54;59.97
21826;BME280;11075;47.944;11.776;2024-03-22T02:13:27;95414.56;;;2.50;59.34
21826;BME280;11075;47.944;11.776;2024-03-22T02:15:52;95417.91;;;2.33;60.53
21826;BME280;11075;47.944;11.776;2024-03-22T02:18:18;95421.19;;;1.52;64.90
21826;BME280;11075;47.944;11.776;2024-03-22T02:20:43;95417.81;;;1.75;62.42
21826;BME280;11075;47.944;11.776;2024-03-22T02:23:09;95418.56;;;1.22;63.63
21826;BME280;11075;47.944;11.776;2024-03-22T02:25:35;95419.75;;;1.38;62.75
21826;BME280;11075;47.944;11.776;2024-03-22T02:28:00;95413.34;;;0.49;66.45
21826;BME280;11075;47.944;11.776;2024-03-22T02:30:26;95417.88;;;0.60;65.97
21826;BME280;11075;47.944;11.776;2024-03-22T02:32:51;95407.78;;;0.39;68.47
21826;BME280;11075;47.944;11.776;2024-03-22T02:35:17;95409.19;;;1.26;62.26
21826;BME280;11075;47.944;11.776;2024-03-22T02:37:43;95404.91;;;1.44;62.02
21826;BME280;11075;47.944;11.776;2024-03-22T02:40:09;95396.75;;;0.30;66.15
21826;BME280;11075;47.944;11.776;2024-03-22T02:42:34;95393.50;;;0.90;63.05
21826;BME280;11075;47.944;11.776;2024-03-22T02:45:00;95391.09;;;0.88;61.77
21826;BME280;11075;47.944;11.776;2024-03-22T02:47:26;95392.44;;;-0.07;66.87
21826;BME280;11075;47.944;11.776;2024-03-22T02:49:51;95394.09;;;0.37;64.97
21826;BME280;11075;47.944;11.776;2024-03-22T02:52:17;95385.03;;;0.51;67.16
21826;BME280;11075;47.944;11.776;2024-03-22T02:54:42;95386.19;;;0.92;65.38
21826;BME280;11075;47.944;11.776;2024-03-22T02:57:08;95381.69;;;0.62;65.57
21826;BME280;11075;47.944;11.776;2024-03-22T02:59:34;95378.75;;;0.34;68.72
21826;BME280;11075;47.944;11.776;2024-03-22T03:01:59;95386.53;;;0.22;70.99
21826;BME280;11075;47.944;11.776;2024-03-22T03:04:25;95379.38;;;0.29;68.48
21826;BME280;11075;47.944;11.776;2024-03-22T03:06:51;95379.72;;;0.58;66.14
21826;BME280;11075;47.944;11.776;2024-03-22T03:09:16;95377.72;;;-0.33;69.33
21826;BME280;11075;47.944;11.776;2024-03-22T03:11:42;95381.53;;;0.39;66.16
21826;BME280;11075;47.944;11.776;2024-03-22T03:14:08;95372.13;;;0.68;64.36
21826;BME280;11075;47.944;11.776;2024-03-22T03:16:34;95368.31;;;1.12;62.20
21826;BME280;11075;47.944;11.776;2024-03-22T03:18:59;95368.16;;;0.77;63.03
21826;BME280;11075;47.944;11.776;2024-03-22T03:21:25;95367.78;;;0.92;61.48
21826;BME280;11075;47.944;11.776;2024-03-22T03:23:51;95366.59;;;1.06;60.29
21826;BME280;11075;47.944;11.776;2024-03-22T03:26:17;95364.94;;;0.93;61.47
21826;BME280;11075;47.944;11.776;2024-03-22T03:28:43;95360.28;;;0.77;62.15
21826;BME280;11075;47.944;11.776;2024-03-22T03:31:08;95354.47;;;0.38;64.10
21826;BME280;11075;47.944;11.776;2024-03-22T03:33:34;95357.19;;;0.07;65.98
21826;BME280;11075;47.944;11.776;2024-03-22T03:36:00;95351.88;;;0.14;65.19
21826;BME280;11075;47.944;11.776;2024-03-22T03:38:25;95356.69;;;0.17;65.44
21826;BME280;11075;47.944;11.776;2024-03-22T03:40:51;95346.59;;;0.38;63.62
21826;BME280;11075;47.944;11.776;2024-03-22T03:43:16;95351.56;;;0.03;66.75
21826;BME280;11075;47.944;11.776;2024-03-22T03:45:42;95359.19;;;-0.13;67.11
21826;BME280;11075;47.944;11.776;2024-03-22T03:48:08;95359.50;;;0.58;63.38
21826;BME280;11075;47.944;11.776;2024-03-22T03:50:33;95346.84;;;0.30;63.08
21826;BME280;11075;47.944;11.776;2024-03-22T03:52:59;95359.53;;;0.15;64.07
21826;BME280;11075;47.944;11.776;2024-03-22T03:55:26;95347.94;;;0.23;64.64
21826;BME280;11075;47.944;11.776;2024-03-22T03:57:51;95347.63;;;0.37;62.87
21826;BME280;11075;47.944;11.776;2024-03-22T04:00:19;95349.28;;;0.68;64.11
21826;BME280;11075;47.944;11.776;2024-03-22T04:02:45;95349.03;;;0.15;64.63
21826;BME280;11075;47.944;11.776;2024-03-22T04:05:11;95347.06;;;0.29;64.18
21826;BME280;11075;47.944;11.776;2024-03-22T04:07:36;95345.13;;;0.43;63.09
21826;BME280;11075;47.944;11.776;2024-03-22T04:10:02;95335.56;;;0.30;64.22
21826;BME280;11075;47.944;11.776;2024-03-22T04:12:28;95339.28;;;-1.02;70.07
21826;BME280;11075;47.944;11.776;2024-03-22T04:14:54;95342.53;;;-0.75;69.44
21826;BME280;11075;47.944;11.776;2024-03-22T04:17:20;95333.66;;;-0.25;67.10
21826;BME280;11075;47.944;11.776;2024-03-22T04:19:46;95342.59;;;-0.32;65.99
21826;BME280;11075;47.944;11.776;2024-03-22T04:22:11;95336.59;;;-0.14;65.52
21826;BME280;11075;47.944;11.776;2024-03-22T04:24:37;95341.06;;;0.03;65.96
21826;BME280;11075;47.944;11.776;2024-03-22T04:27:03;95336.75;;;-0.09;66.37
21826;BME280;11075;47.944;11.776;2024-03-22T04:29:29;95336.66;;;-0.21;70.18
21826;BME280;11075;47.944;11.776;2024-03-22T04:31:55;95338.03;;;-0.68;71.34
21826;BME280;11075;47.944;11.776;2024-03-22T04:34:20;95335.38;;;-0.12;67.63
21826;BME280;11075;47.944;11.776;2024-03-22T04:36:46;95333.84;;;-0.01;66.17
21826;BME280;11075;47.944;11.776;2024-03-22T04:39:12;95332.63;;;0.01;65.66
21826;BME280;11075;47.944;11.776;2024-03-22T04:41:39;95324.03;;;-0.56;67.36
21826;BME280;11075;47.944;11.776;2024-03-22T04:44:04;95325.00;;;-0.50;70.95
21826;BME280;11075;47.944;11.776;2024-03-22T04:46:30;95330.72;;;-0.60;68.68
21826;BME280;11075;47.944;11.776;2024-03-22T04:48:56;95328.91;;;0.09;64.49
21826;BME280;11075;47.944;11.776;2024-03-22T04:51:21;95318.56;;;0.14;64.06
21826;BME280;11075;47.944;11.776;2024-03-22T04:53:47;95318.50;;;0.39;62.97
21826;BME280;11075;47.944;11.776;2024-03-22T04:56:13;95324.03;;;-0.31;68.39
21826;BME280;11075;47.944;11.776;2024-03-22T04:58:38;95324.47;;;0.09;66.82
21826;BME280;11075;47.944;11.776;2024-03-22T05:01:04;95328.13;;;-0.16;71.28
21826;BME280;11075;47.944;11.776;2024-03-22T05:03:30;95330.69;;;0.33;69.50
21826;BME280;11075;47.944;11.776;2024-03-22T05:05:56;95320.34;;;-0.48;69.87
21826;BME280;11075;47.944;11.776;2024-03-22T05:08:22;95313.97;;;0.09;65.54
21826;BME280;11075;47.944;11.776;2024-03-22T05:10:48;95325.16;;;-0.20;67.76
21826;BME280;11075;47.944;11.776;2024-03-22T05:13:14;95322.19;;;0.31;65.16
21826;BME280;11075;47.944;11.776;2024-03-22T05:15:39;95317.28;;;0.41;65.27
21826;BME280;11075;47.944;11.776;2024-03-22T05:18:05;95320.06;;;-0.15;69.60
21826;BME280;11075;47.944;11.776;2024-03-22T05:20:31;95320.06;;;-0.15;67.32
21826;BME280;11075;47.944;11.776;2024-03-22T05:22:57;95311.53;;;-0.10;67.22
21826;BME280;11075;47.944;11.776;2024-03-22T05:25:22;95310.97;;;-0.62;69.01
21826;BME280;11075;47.944;11.776;2024-03-22T05:27:48;95306.69;;;0.48;63.16
21826;BME280;11075;47.944;11.776;2024-03-22T05:30:14;95289.75;;;0.07;64.48
21826;BME280;11075;47.944;11.776;2024-03-22T05:32:40;95299.38;;;0.14;65.65
21826;BME280;11075;47.944;11.776;2024-03-22T05:35:06;95301.19;;;0.68;61.99
21826;BME280;11075;47.944;11.776;2024-03-22T05:37:32;95297.19;;;-0.08;66.83
21826;BME280;11075;47.944;11.776;2024-03-22T05:39:59;95299.22;;;0.27;66.94
21826;BME280;11075;47.944;11.776;2024-03-22T05:42:26;95294.28;;;0.19;66.42
21826;BME280;11075;47.944;11.776;2024-03-22T05:44:52;95299.41;;;0.80;64.25
21826;BME280;11075;47.944;11.776;2024-03-22T05:47:18;95288.75;;;1.05;65.57
21826;BME280;11075;47.944;11.776;2024-03-22T05:49:44;95283.91;;;2.14;59.73
21826;BME280;11075;47.944;11.776;2024-03-22T05:52:10;95287.78;;;2.75;56.97
21826;BME280;11075;47.944;11.776;2024-03-22T05:54:37;95281.19;;;3.51;55.60
21826;BME280;11075;47.944;11.776;2024-03-22T05:57:03;95286.41;;;2.72;58.10
21826;BME280;11075;47.944;11.776;2024-03-22T05:59:30;95288.75;;;4.14;54.01
21826;BME280;11075;47.944;11.776;2024-03-22T06:01:56;95290.47;;;3.53;56.64
21826;BME280;11075;47.944;11.776;2024-03-22T06:04:22;95286.91;;;1.82;63.92
21826;BME280;11075;47.944;11.776;2024-03-22T06:06:49;95285.44;;;2.61;61.65
21826;BME280;11075;47.944;11.776;2024-03-22T06:09:15;95286.88;;;2.69;60.33
21826;BME280;11075;47.944;11.776;2024-03-22T06:11:49;95282.22;;;1.96;63.77
21826;BME280;11075;47.944;11.776;2024-03-22T06:14:15;95283.25;;;2.87;61.61
21826;BME280;11075;47.944;11.776;2024-03-22T06:16:41;95277.25;;;2.34;64.58
21826;BME280;11075;47.944;11.776;2024-03-22T06:19:06;95274.66;;;2.63;62.55
21826;BME280;11075;47.944;11.776;2024-03-22T06:21:32;95277.56;;;1.10;73.62
21826;BME280;11075;47.944;11.776;2024-03-22T06:23:58;95279.56;;;1.96;71.18
21826;BME280;11075;47.944;11.776;2024-03-22T06:26:23;95277.63;;;2.66;66.05
21826;BME280;11075;47.944;11.776;2024-03-22T06:28:49;95274.34;;;3.05;65.72
21826;BME280;11075;47.944;11.776;2024-03-22T06:31:15;95275.09;;;2.20;71.62
21826;BME280;11075;47.944;11.776;2024-03-22T06:33:41;95274.34;;;2.48;70.71
21826;BME280;11075;47.944;11.776;2024-03-22T06:36:06;95271.00;;;1.89;74.34
21826;BME280;11075;47.944;11.776;2024-03-22T06:38:32;95261.84;;;3.28;68.55
21826;BME280;11075;47.944;11.776;2024-03-22T06:40:58;95269.22;;;2.98;68.59
21826;BME280;11075;47.944;11.776;2024-03-22T06:43:24;95256.19;;;4.31;66.14
21826;BME280;11075;47.944;11.776;2024-03-22T06:45:50;95261.22;;;2.93;71.24
21826;BME280;11075;47.944;11.776;2024-03-22T06:48:16;95262.25;;;3.37;71.02
21826;BME280;11075;47.944;11.776;2024-03-22T06:50:42;95249.28;;;4.73;64.47
21826;BME280;11075;47.944;11.776;2024-03-22T06:53:08;95254.28;;;3.04;72.71
21826;BME280;11075;47.944;11.776;2024-03-22T06:55:35;95254.97;;;3.27;71.52
21826;BME280;11075;47.944;11.776;2024-03-22T06:58:01;95263.19;;;3.81;69.76
21826;BME280;11075;47.944;11.776;2024-03-22T07:00:27;95267.84;;;4.78;65.14
21826;BME280;11075;47.944;11.776;2024-03-22T07:02:52;95257.78;;;5.02;64.86
21826;BME280;11075;47.944;11.776;2024-03-22T07:05:18;95261.06;;;4.87;67.53
21826;BME280;11075;47.944;11.776;2024-03-22T07:07:44;95261.72;;;4.07;68.26
21826;BME280;11075;47.944;11.776;2024-03-22T07:10:09;95265.91;;;5.17;65.91
21826;BME280;11075;47.944;11.776;2024-03-22T07:12:35;95262.44;;;4.90;67.41
21826;BME280;11075;47.944;11.776;2024-03-22T07:15:01;95270.59;;;5.15;64.61
21826;BME280;11075;47.944;11.776;2024-03-22T07:17:28;95263.13;;;5.07;65.53
21826;BME280;11075;47.944;11.776;2024-03-22T07:19:53;95264.09;;;5.92;62.67
21826;BME280;11075;47.944;11.776;2024-03-22T07:22:20;95266.41;;;4.92;65.95
21826;BME280;11075;47.944;11.776;2024-03-22T07:24:46;95259.69;;;5.34;66.36
21826;BME280;11075;47.944;11.776;2024-03-22T07:27:13;95249.28;;;5.59;64.88
21826;BME280;11075;47.944;11.776;2024-03-22T07:29:39;95249.19;;;7.01;61.71
21826;BME280;11075;47.944;11.776;2024-03-22T07:32:05;95244.97;;;7.25;61.01
21826;BME280;11075;47.944;11.776;2024-03-22T07:34:31;95251.84;;;5.81;67.45
21826;BME280;11075;47.944;11.776;2024-03-22T07:36:57;95252.81;;;6.12;66.15
21826;BME280;11075;47.944;11.776;2024-03-22T07:39:22;95245.44;;;8.19;60.18
21826;BME280;11075;47.944;11.776;2024-03-22T07:41:49;95245.50;;;9.22;58.93
21826;BME280;11075;47.944;11.776;2024-03-22T07:44:14;95242.25;;;8.91;56.95
21826;BME280;11075;47.944;11.776;2024-03-22T07:46:43;95251.34;;;9.24;57.59
21826;BME280;11075;47.944;11.776;2024-03-22T07:49:09;95249.53;;;8.70;59.50
21826;BME280;11075;47.944;11.776;2024-03-22T07:51:35;95247.91;;;8.74;58.86
21826;BME280;11075;47.944;11.776;2024-03-22T07:54:01;95235.16;;;10.60;55.72
21826;BME280;11075;47.944;11.776;2024-03-22T07:56:28;95244.47;;;10.87;56.75
21826;BME280;11075;47.944;11.776;2024-03-22T07:58:53;95237.06;;;9.83;54.27
21826;BME280;11075;47.944;11.776;2024-03-22T08:01:19;95242.84;;;10.19;53.85
21826;BME280;11075;47.944;11.776;2024-03-22T08:03:45;95229.91;;;10.31;54.13
21826;BME280;11075;47.944;11.776;2024-03-22T08:06:10;95230.66;;;9.84;52.71
21826;BME280;11075;47.944;11.776;2024-03-22T08:08:36;95225.22;;;10.42;51.99
21826;BME280;11075;47.944;11.776;2024-03-22T08:11:02;95223.69;;;9.88;55.20
21826;BME280;11075;47.944;11.776;2024-03-22T08:13:27;95214.47;;;11.46;52.93
21826;BME280;11075;47.944;11.776;2024-03-22T08:15:53;95207.44;;;10.56;54.04
21826;BME280;11075;47.944;11.776;2024-03-22T08:18:19;95212.78;;;10.99;52.90
21826;BME280;11075;47.944;11.776;2024-03-22T08:20:44;95211.03;;;10.70;54.85
21826;BME280;11075;47.944;11.776;2024-03-22T08:23:10;95214.28;;;10.44;52.98
21826;BME280;11075;47.944;11.776;2024-03-22T08:25:36;95218.97;;;9.80;56.14
21826;BME280;11075;47.944;11.776;2024-03-22T08:28:02;95205.41;;;10.48;53.70
21826;BME280;11075;47.944;11.776;2024-03-22T08:30:28;95204.00;;;10.32;52.86
21826;BME280;11075;47.944;11.776;2024-03-22T08:32:54;95199.44;;;10.99;52.94
21826;BME280;11075;47.944;11.776;2024-03-22T08:35:19;95201.97;;;11.60;51.30
21826;BME280;11075;47.944;11.776;2024-03-22T08:37:46;95207.75;;;11.81;52.00
21826;BME280;11075;47.944;11.776;2024-03-22T08:40:11;95193.22;;;12.83;49.49
21826;BME280;11075;47.944;11.776;2024-03-22T08:42:38;95202.47;;;12.63;48.96
21826;BME280;11075;47.944;11.776;2024-03-22T08:45:03;95192.97;;;13.74;46.53
21826;BME280;11075;47.944;11.776;2024-03-22T08:47:30;95193.66;;;12.99;46.93
21826;BME280;11075;47.944;11.776;2024-03-22T08:49:55;95191.50;;;10.94;48.90
21826;BME280;11075;47.944;11.776;2024-03-22T08:52:23;95196.34;;;13.57;46.80
21826;BME280;11075;47.944;11.776;2024-03-22T08:54:50;95188.97;;;13.63;45.26
21826;BME280;11075;47.944;11.776;2024-03-22T08:57:16;95173.03;;;12.22;48.32
21826;BME280;11075;47.944;11.776;2024-03-22T08:59:41;95189.16;;;13.98;45.10
21826;BME280;11075;47.944;11.776;2024-03-22T09:02:07;95186.97;;;14.87;40.81
21826;BME280;11075;47.944;11.776;2024-03-22T09:04:33;95194.75;;;12.98;41.81
21826;BME280;11075;47.944;11.776;2024-03-22T09:06:58;95169.25;;;12.37;44.48
21826;BME280;11075;47.944;11.776;2024-03-22T09:09:24;95167.31;;;14.70;42.80
21826;BME280;11075;47.944;11.776;2024-03-22T09:11:52;95163.34;;;14.10;45.96
21826;BME280;11075;47.944;11.776;2024-03-22T09:14:18;95168.03;;;13.43;41.46
21826;BME280;11075;47.944;11.776;2024-03-22T09:16:43;95173.28;;;13.79;40.58
21826;BME280;11075;47.944;11.776;2024-03-22T09:19:09;95151.66;;;14.72;41.52
21826;BME280;11075;47.944;11.776;2024-03-22T09:21:36;95171.81;;;14.35;38.83
21826;BME280;11075;47.944;11.776;2024-03-22T09:24:02;95134.16;;;12.88;40.40
21826;BME280;11075;47.944;11.776;2024-03-22T09:26:34;95160.41;;;15.03;38.91
21826;BME280;11075;47.944;11.776;2024-03-22T09:29:00;95182.13;;;13.79;39.33
21826;BME280;11075;47.944;11.776;2024-03-22T09:31:26;95147.44;;;15.31;39.33
21826;BME280;11075;47.944;11.776;2024-03-22T09:33:52;95159.34;;;14.39;39.81
21826;BME280;11075;47.944;11.776;2024-03-22T09:36:18;95183.50;;;15.56;37.60
21826;BME280;11075;47.944;11.776;2024-03-22T09:38:44;95157.09;;;15.24;38.67
21826;BME280;11075;47.944;11.776;2024-03-22T09:41:09;95158.69;;;13.93;37.72
21826;BME280;11075;47.944;11.776;2024-03-22T09:43:35;95157.09;;;15.32;37.77
21826;BME280;11075;47.944;11.776;2024-03-22T09:46:03;95128.38;;;13.93;39.33
21826;BME280;11075;47.944;11.776;2024-03-22T09:48:29;95142.94;;;13.70;39.92
21826;BME280;11075;47.944;11.776;2024-03-22T09:50:57;95143.47;;;15.37;39.31
21826;BME280;11075;47.944;11.776;2024-03-22T09:53:23;95163.91;;;16.99;36.88
21826;BME280;11075;47.944;11.776;2024-03-22T09:55:51;95167.34;;;17.62;35.21
21826;BME280;11075;47.944;11.776;2024-03-22T09:58:17;95165.28;;;17.05;34.29
21826;BME280;11075;47.944;11.776;2024-03-22T10:00:43;95167.25;;;15.99;34.55
21826;BME280;11075;47.944;11.776;2024-03-22T10:03:12;95148.13;;;15.92;35.61
21826;BME280;11075;47.944;11.776;2024-03-22T10:05:38;95115.63;;;16.35;37.79
21826;BME280;11075;47.944;11.776;2024-03-22T10:08:04;95132.88;;;17.14;35.72
21826;BME280;11075;47.944;11.776;2024-03-22T10:10:33;95122.59;;;16.66;36.02
21826;BME280;11075;47.944;11.776;2024-03-22T10:13:02;95131.47;;;15.99;35.09
21826;BME280;11075;47.944;11.776;2024-03-22T10:15:28;95109.00;;;15.31;36.38
21826;BME280;11075;47.944;11.776;2024-03-22T10:17:59;95082.34;;;15.72;38.27
21826;BME280;11075;47.944;11.776;2024-03-22T10:20:24;95116.91;;;16.00;37.03
21826;BME280;11075;47.944;11.776;2024-03-22T10:22:57;95123.59;;;16.32;35.52
21826;BME280;11075;47.944;11.776;2024-03-22T10:25:26;95114.44;;;14.22;36.01
21826;BME280;11075;47.944;11.776;2024-03-22T10:27:56;95117.66;;;16.09;35.13
21826;BME280;11075;47.944;11.776;2024-03-22T10:30:22;95103.75;;;17.07;35.01
21826;BME280;11075;47.944;11.776;2024-03-22T10:32:49;95123.13;;;18.12;33.91
21826;BME280;11075;47.944;11.776;2024-03-22T10:35:15;95075.63;;;16.16;35.76
21826;BME280;11075;47.944;11.776;2024-03-22T10:37:42;95106.84;;;17.63;33.54
21826;BME280;11075;47.944;11.776;2024-03-22T10:40:08;95160.31;;;19.28;29.97
21826;BME280;11075;47.944;11.776;2024-03-22T10:42:41;95130.38;;;21.10;30.37
21826;BME280;11075;47.944;11.776;2024-03-22T10:45:08;95161.00;;;22.07;28.11
21826;BME280;11075;47.944;11.776;2024-03-22T10:47:34;95162.56;;;22.31;27.83
21826;BME280;11075;47.944;11.776;2024-03-22T10:52:26;95138.19;;;21.50;28.37
21826;BME280;11075;47.944;11.776;2024-03-22T10:54:52;95122.03;;;20.49;28.86
21826;BME280;11075;47.944;11.776;2024-03-22T10:57:18;95070.59;;;19.86;31.38
21826;BME280;11075;47.944;11.776;2024-03-22T10:59:45;95087.34;;;19.91;30.85
21826;BME280;11075;47.944;11.776;2024-03-22T11:02:11;95059.97;;;19.06;32.15
21826;BME280;11075;47.944;11.776;2024-03-22T11:04:37;95032.66;;;17.69;34.47
21826;BME280;11075;47.944;11.776;2024-03-22T11:07:03;95014.22;;;16.93;34.81
21826;BME280;11075;47.944;11.776;2024-03-22T11:09:29;95076.31;;;18.45;32.30
21826;BME280;11075;47.944;11.776;2024-03-22T11:11:56;95051.53;;;16.70;33.87
21826;BME280;11075;47.944;11.776;2024-03-22T11:14:23;95042.84;;;16.86;33.63
21826;BME280;11075;47.944;11.776;2024-03-22T11:16:51;95031.72;;;17.53;34.03
21826;BME280;11075;47.944;11.776;2024-03-22T11:19:18;95032.50;;;17.54;33.80
21826;BME280;11075;47.944;11.776;2024-03-22T11:21:44;95013.44;;;17.14;34.93
21826;BME280;11075;47.944;11.776;2024-03-22T11:24:09;95050.81;;;19.10;32.62
21826;BME280;11075;47.944;11.776;2024-03-22T11:26:36;95004.78;;;19.38;34.30
21826;BME280;11075;47.944;11.776;2024-03-22T11:29:02;95022.19;;;17.92;34.24
21826;BME280;11075;47.944;11.776;2024-03-22T11:31:28;95049.75;;;19.43;32.00
21826;BME280;11075;47.944;11.776;2024-03-22T11:33:54;95077.22;;;20.04;29.95
21826;BME280;11075;47.944;11.776;2024-03-22T11:36:19;95041.31;;;18.36;31.65
21826;BME280;11075;47.944;11.776;2024-03-22T11:38:46;95023.44;;;20.38;31.22
21826;BME280;11075;47.944;11.776;2024-03-22T11:41:16;95036.16;;;20.53;30.76
21826;BME280;11075;47.944;11.776;2024-03-22T11:43:42;95028.84;;;20.38;31.11
21826;BME280;11075;47.944;11.776;2024-03-22T11:46:08;94999.16;;;18.87;32.16
21826;BME280;11075;47.944;11.776;2024-03-22T11:48:38;94999.69;;;19.21;31.60
21826;BME280;11075;47.944;11.776;2024-03-22T11:51:04;95005.34;;;20.80;30.87
21826;BME280;11075;47.944;11.776;2024-03-22T11:53:30;95005.56;;;20.72;30.44
21826;BME280;11075;47.944;11.776;2024-03-22T11:55:57;95013.22;;;20.31;29.58
21826;BME280;11075;47.944;11.776;2024-03-22T11:58:25;94994.19;;;20.27;30.11
21826;BME280;11075;47.944;11.776;2024-03-22T12:00:50;95029.06;;;20.83;28.46
21826;BME280;11075;47.944;11.776;2024-03-22T12:03:16;94974.78;;;18.31;30.73
21826;BME280;11075;47.944;11.776;2024-03-22T12:05:42;94983.19;;;20.05;29.97
21826;BME280;11075;47.944;11.776;2024-03-22T12:08:07;94948.66;;;19.35;31.96
21826;BME280;11075;47.944;11.776;2024-03-22T12:10:33;94990.28;;;20.63;28.99
21826;BME280;11075;47.944;11.776;2024-03-22T12:13:00;94966.38;;;20.30;30.40
21826;BME280;11075;47.944;11.776;2024-03-22T12:15:26;94937.28;;;19.14;31.18
21826;BME280;11075;47.944;11.776;2024-03-22T12:17:51;94968.88;;;20.58;29.23
21826;BME280;11075;47.944;11.776;2024-03-22T12:20:18;94938.63;;;20.37;30.75
21826;BME280;11075;47.944;11.776;2024-03-22T12:22:44;94923.50;;;19.50;31.07
21826;BME280;11075;47.944;11.776;2024-03-22T12:25:10;94940.63;;;20.40;30.12
21826;BME280;11075;47.944;11.776;2024-03-22T12:27:37;94938.25;;;19.84;30.43
21826;BME280;11075;47.944;11.776;2024-03-22T12:30:03;94948.59;;;19.98;29.42
21826;BME280;11075;47.944;11.776;2024-03-22T12:32:29;94945.75;;;19.75;29.62
21826;BME280;11075;47.944;11.776;2024-03-22T12:34:54;94894.41;;;18.84;32.14
21826;BME280;11075;47.944;11.776;2024-03-22T12:37:20;94951.88;;;19.25;28.70
21826;BME280;11075;47.944;11.776;2024-03-22T12:39:46;94935.47;;;18.46;29.79
21826;BME280;11075;47.944;11.776;2024-03-22T12:42:12;94946.34;;;18.10;28.75
21826;BME280;11075;47.944;11.776;2024-03-22T12:44:38;94923.78;;;18.86;29.62
21826;BME280;11075;47.944;11.776;2024-03-22T12:47:04;94897.50;;;18.70;30.49
21826;BME280;11075;47.944;11.776;2024-03-22T12:49:30;94914.47;;;18.83;29.59
21826;BME280;11075;47.944;11.776;2024-03-22T12:51:56;94915.03;;;19.36;28.79